Time;durP1;ratioP1;P1;durP2;ratioP2;P2;SDS_P1;SDS_P2;PMS_P1;PMS_P2;Temp;Humidity;BMP_temperature;BMP_pressure;BME280_temperature;BME280_humidity;BME280_pressure;Samples;Min_cycle;Max_cycle;Signal;HPM_P1;HPM_P2
2024/02/13 00:01:41;;;;;;;23.45;9.90;;;3.80;99.90;;;;;;5006934;28;20022;-62
2024/02/13 00:04:10;;;;;;;23.90;10.77;;;3.80;99.90;;;;;;5004176;28;20033;-62
2024/02/13 00:06:37;;;;;;;18.95;8.43;;;3.70;99.90;;;;;;5005396;28;21528;-62
2024/02/13 00:09:04;;;;;;;18.42;9.63;;;3.70;99.90;;;;;;5005672;28;20549;-61
2024/02/13 00:11:30;;;;;;;21.77;8.85;;;3.70;99.90;;;;;;5004416;28;20029;-63
2024/02/13 00:13:56;;;;;;;18.48;9.20;;;3.60;99.90;;;;;;5005640;28;20017;-63
2024/02/13 00:16:22;;;;;;;18.23;8.95;;;3.60;99.90;;;;;;5007133;28;20025;-63
2024/02/13 00:18:49;;;;;;;18.38;7.55;;;3.50;99.90;;;;;;5003775;28;20034;-63
2024/02/13 00:21:15;;;;;;;17.65;8.52;;;3.50;99.90;;;;;;5005504;28;20546;-63
2024/02/13 00:23:40;;;;;;;19.20;8.55;;;3.40;99.90;;;;;;5011921;28;20030;-60
2024/02/13 00:26:09;;;;;;;18.58;8.52;;;3.40;99.90;;;;;;5012762;28;20080;-60
2024/02/13 00:28:38;;;;;;;19.80;8.73;;;3.30;99.90;;;;;;5016688;28;20492;-63
2024/02/13 00:31:07;;;;;;;21.85;8.48;;;3.20;99.90;;;;;;5014191;28;20033;-63
2024/02/13 00:33:36;;;;;;;19.58;8.43;;;3.20;99.90;;;;;;5001922;28;20466;-63
2024/02/13 00:36:02;;;;;;;21.13;8.40;;;3.10;99.90;;;;;;5013282;28;20136;-63
2024/02/13 00:38:29;;;;;;;17.33;8.25;;;3.00;99.90;;;;;;5009726;28;20061;-63
2024/02/13 00:40:55;;;;;;;23.13;9.55;;;2.90;99.90;;;;;;5013512;28;20021;-63
2024/02/13 00:43:22;;;;;;;16.80;8.27;;;2.90;99.90;;;;;;5013851;28;20924;-63
2024/02/13 00:45:48;;;;;;;21.65;9.13;;;2.80;99.90;;;;;;5011212;28;20076;-63
2024/02/13 00:48:16;;;;;;;16.73;8.70;;;2.70;99.90;;;;;;5005146;28;20129;-63
2024/02/13 00:50:44;;;;;;;20.20;8.75;;;2.70;99.90;;;;;;5011165;28;20021;-63
2024/02/13 00:53:10;;;;;;;20.42;8.45;;;2.70;99.90;;;;;;5004994;28;20144;-63
2024/02/13 00:55:36;;;;;;;22.42;8.38;;;2.60;99.90;;;;;;5006003;28;20032;-63
2024/02/13 00:58:02;;;;;;;28.25;10.48;;;2.50;99.90;;;;;;5002927;28;20928;-63
2024/02/13 01:00:28;;;;;;;20.92;8.88;;;2.50;99.90;;;;;;5005590;28;21135;-63
2024/02/13 01:02:55;;;;;;;17.65;8.95;;;2.50;99.90;;;;;;5004693;28;20716;-63
2024/02/13 01:05:21;;;;;;;19.02;8.85;;;2.50;99.90;;;;;;5004240;28;20053;-63
2024/02/13 01:07:47;;;;;;;22.83;8.55;;;2.50;99.90;;;;;;5005779;28;20030;-63
2024/02/13 01:10:15;;;;;;;21.63;8.35;;;2.50;99.90;;;;;;5003783;28;20112;-63
2024/02/13 01:12:41;;;;;;;20.38;8.30;;;2.40;99.90;;;;;;4988315;28;20037;-63
2024/02/13 01:15:07;;;;;;;18.52;8.93;;;2.40;99.90;;;;;;4998713;28;20507;-62
2024/02/13 01:17:33;;;;;;;23.65;8.82;;;2.40;99.90;;;;;;5013107;28;20391;-63
2024/02/13 01:19:59;;;;;;;24.23;9.52;;;2.30;99.90;;;;;;5008752;28;20018;-63
2024/02/13 01:22:24;;;;;;;21.75;8.30;;;2.30;99.90;;;;;;5010886;28;20090;-63
2024/02/13 01:24:51;;;;;;;23.98;8.80;;;2.30;99.90;;;;;;5012646;28;20403;-63
2024/02/13 01:27:18;;;;;;;17.77;8.57;;;2.20;99.90;;;;;;5013807;28;20108;-63
2024/02/13 01:29:44;;;;;;;17.83;8.73;;;2.20;99.90;;;;;;5010618;28;20088;-63
2024/02/13 01:32:10;;;;;;;21.88;8.73;;;2.20;99.90;;;;;;5010737;28;20391;-63
2024/02/13 01:34:35;;;;;;;20.25;8.43;;;2.20;99.90;;;;;;4989010;28;20496;-63
2024/02/13 01:37:01;;;;;;;23.77;9.07;;;2.20;99.90;;;;;;5010999;28;20487;-63
2024/02/13 01:39:27;;;;;;;18.88;9.05;;;2.20;99.90;;;;;;5018666;28;20091;-63
2024/02/13 01:41:53;;;;;;;25.92;8.93;;;2.10;99.90;;;;;;5009656;28;20026;-63
2024/02/13 01:44:19;;;;;;;26.88;9.48;;;2.10;99.90;;;;;;5011557;28;20041;-62
2024/02/13 01:46:45;;;;;;;25.65;10.77;;;2.10;99.90;;;;;;5013826;28;20030;-63
2024/02/13 01:49:11;;;;;;;23.27;9.77;;;2.10;99.90;;;;;;5014129;28;20029;-63
2024/02/13 01:51:39;;;;;;;20.40;9.27;;;2.00;99.90;;;;;;5012247;28;20033;-63
2024/02/13 01:54:10;;;;;;;21.63;10.18;;;2.00;99.90;;;;;;5012539;28;20029;-63
2024/02/13 01:56:37;;;;;;;21.02;9.65;;;2.00;99.90;;;;;;5011560;28;20029;-63
2024/02/13 01:59:04;;;;;;;24.88;9.77;;;2.00;99.90;;;;;;5010499;28;20034;-63
2024/02/13 02:01:30;;;;;;;25.42;9.27;;;1.90;99.90;;;;;;5011067;28;20117;-63
2024/02/13 02:03:58;;;;;;;20.02;9.60;;;1.90;99.90;;;;;;5013171;28;20125;-63
2024/02/13 02:06:24;;;;;;;23.23;9.40;;;1.90;99.90;;;;;;5015515;28;20061;-63
2024/02/13 02:08:50;;;;;;;25.40;9.85;;;1.90;99.90;;;;;;5011660;28;20033;-63
2024/02/13 02:11:16;;;;;;;26.08;9.60;;;1.80;99.90;;;;;;5012659;28;20106;-63
2024/02/13 02:13:42;;;;;;;16.95;9.05;;;1.80;99.90;;;;;;5009036;28;20041;-63
2024/02/13 02:16:08;;;;;;;17.10;8.88;;;1.90;99.90;;;;;;5008688;28;20069;-63
2024/02/13 02:18:34;;;;;;;31.50;10.93;;;1.80;99.90;;;;;;5009302;28;20479;-63
2024/02/13 02:20:59;;;;;;;26.63;11.80;;;1.90;99.90;;;;;;5010607;28;20108;-63
2024/02/13 02:23:26;;;;;;;26.75;9.70;;;1.90;99.90;;;;;;5012186;28;20034;-61
2024/02/13 02:25:52;;;;;;;24.02;10.25;;;1.80;99.90;;;;;;5010034;28;20060;-62
2024/02/13 02:28:18;;;;;;;30.02;10.77;;;1.80;99.90;;;;;;5012211;28;20033;-63
2024/02/13 02:30:47;;;;;;;24.30;11.20;;;1.80;99.90;;;;;;5011460;28;20388;-63
2024/02/13 02:33:13;;;;;;;33.53;10.30;;;1.80;99.90;;;;;;5014240;28;20034;-63
2024/02/13 02:35:41;;;;;;;23.92;10.82;;;1.70;99.90;;;;;;4990529;28;20053;-63
2024/02/13 02:38:09;;;;;;;20.27;11.00;;;1.70;99.90;;;;;;5013246;28;20026;-63
2024/02/13 02:40:36;;;;;;;24.15;10.43;;;1.80;99.90;;;;;;5007785;28;20088;-63
2024/02/13 02:43:02;;;;;;;33.03;11.90;;;1.80;99.90;;;;;;5011171;28;20047;-63
2024/02/13 02:45:28;;;;;;;26.13;10.15;;;1.70;99.90;;;;;;5013061;28;20072;-63
2024/02/13 02:47:54;;;;;;;27.85;11.82;;;1.70;99.90;;;;;;5016126;28;20034;-63
2024/02/13 02:50:20;;;;;;;31.27;11.15;;;1.70;99.90;;;;;;5012523;28;20088;-63
2024/02/13 02:52:46;;;;;;;25.67;11.00;;;1.80;99.90;;;;;;5005792;28;20061;-63
2024/02/13 02:55:11;;;;;;;23.50;12.15;;;1.80;99.90;;;;;;5002948;28;20125;-63
2024/02/13 02:57:40;;;;;;;30.48;11.02;;;1.90;99.90;;;;;;5002307;28;20472;-63
2024/02/13 03:00:09;;;;;;;29.33;11.65;;;1.90;99.90;;;;;;5002642;28;20025;-62
2024/02/13 03:02:36;;;;;;;26.17;11.95;;;2.00;99.90;;;;;;5005114;28;20855;-63
2024/02/13 03:05:03;;;;;;;33.33;12.73;;;2.10;99.90;;;;;;5003425;28;20037;-63
2024/02/13 03:07:29;;;;;;;32.67;13.15;;;2.10;99.90;;;;;;5005764;28;20302;-63
2024/02/13 03:09:55;;;;;;;30.83;11.95;;;2.20;99.90;;;;;;5008942;28;20160;-63
2024/02/13 03:12:21;;;;;;;37.63;12.48;;;2.30;99.90;;;;;;4996644;28;20095;-63
2024/02/13 03:14:50;;;;;;;22.92;12.20;;;2.50;99.90;;;;;;5003504;28;20088;-62
2024/02/13 03:17:21;;;;;;;30.52;12.30;;;2.60;99.90;;;;;;5005096;28;20038;-63
2024/02/13 03:19:46;;;;;;;28.15;11.55;;;2.60;99.90;;;;;;5002679;28;20026;-63
2024/02/13 03:22:12;;;;;;;27.00;11.90;;;2.60;99.90;;;;;;5001191;28;20033;-63
2024/02/13 03:24:38;;;;;;;28.27;11.50;;;2.60;99.90;;;;;;5014641;28;20522;-63
2024/02/13 03:27:04;;;;;;;27.13;12.32;;;2.70;99.90;;;;;;5014680;28;20029;-63
2024/02/13 03:29:29;;;;;;;41.00;12.07;;;2.60;99.90;;;;;;5014198;28;20180;-63
2024/02/13 03:31:55;;;;;;;24.83;12.00;;;2.60;99.90;;;;;;5017139;28;20061;-62
2024/02/13 03:34:21;;;;;;;24.48;11.50;;;2.50;99.90;;;;;;4993771;28;20421;-63
2024/02/13 03:36:47;;;;;;;30.17;11.55;;;2.50;99.90;;;;;;5013720;28;20033;-63
2024/02/13 03:39:13;;;;;;;28.52;10.85;;;2.40;99.90;;;;;;5017041;28;20407;-63
2024/02/13 03:41:46;;;;;;;24.55;12.02;;;2.40;99.90;;;;;;5008410;28;20479;-63
2024/02/13 03:44:12;;;;;;;29.00;11.68;;;2.30;99.90;;;;;;5005760;28;20026;-63
2024/02/13 03:46:38;;;;;;;26.20;12.35;;;2.30;99.90;;;;;;5005622;28;20038;-63
2024/02/13 03:49:04;;;;;;;25.08;11.68;;;2.30;99.90;;;;;;5006585;28;20029;-63
2024/02/13 03:51:30;;;;;;;29.80;11.70;;;2.20;99.90;;;;;;5008143;28;20037;-63
2024/02/13 03:53:56;;;;;;;26.88;12.15;;;2.20;99.90;;;;;;5005833;28;20095;-63
2024/02/13 03:56:22;;;;;;;28.95;11.68;;;2.20;99.90;;;;;;5004857;28;20037;-63
2024/02/13 03:58:47;;;;;;;26.38;11.85;;;2.10;99.90;;;;;;5004480;28;20029;-63
2024/02/13 04:01:13;;;;;;;25.77;11.20;;;2.10;99.90;;;;;;5005975;28;20037;-63
2024/02/13 04:03:38;;;;;;;22.77;11.27;;;2.00;99.90;;;;;;5004104;28;20117;-63
2024/02/13 04:06:05;;;;;;;32.97;10.95;;;2.00;99.90;;;;;;5006014;28;20504;-63
2024/02/13 04:08:31;;;;;;;26.52;11.30;;;2.00;99.90;;;;;;5010709;28;20038;-63
2024/02/13 04:10:57;;;;;;;30.70;11.02;;;2.00;99.90;;;;;;5006909;28;20526;-63
2024/02/13 04:13:24;;;;;;;27.98;10.75;;;2.00;99.90;;;;;;5012149;28;20127;-63
2024/02/13 04:15:50;;;;;;;28.70;11.23;;;2.00;99.90;;;;;;5018769;28;20028;-63
2024/02/13 04:18:16;;;;;;;24.23;10.65;;;2.10;99.90;;;;;;5010591;28;20033;-63
2024/02/13 04:20:41;;;;;;;28.60;11.63;;;2.10;99.90;;;;;;5011736;28;20570;-63
2024/02/13 04:23:07;;;;;;;21.80;9.63;;;2.20;99.90;;;;;;5010814;28;20109;-63
2024/02/13 04:25:33;;;;;;;27.67;10.40;;;2.20;99.90;;;;;;5011370;28;20036;-63
2024/02/13 04:27:59;;;;;;;30.10;11.30;;;2.20;99.90;;;;;;5016867;28;20030;-62
2024/02/13 04:30:25;;;;;;;28.05;11.00;;;2.30;99.90;;;;;;5014107;28;20062;-63
2024/02/13 04:32:50;;;;;;;24.00;12.13;;;2.30;99.90;;;;;;5013401;28;20416;-63
2024/02/13 04:35:16;;;;;;;34.10;11.15;;;2.30;99.90;;;;;;4996464;28;20136;-63
2024/02/13 04:37:42;;;;;;;30.70;12.23;;;2.30;99.90;;;;;;5010386;28;20113;-63
2024/02/13 04:40:09;;;;;;;30.85;11.35;;;2.20;99.90;;;;;;5014871;28;20029;-63
2024/02/13 04:42:37;;;;;;;22.65;10.18;;;2.20;99.90;;;;;;5012695;28;20029;-63
2024/02/13 04:45:04;;;;;;;25.75;10.73;;;2.20;99.90;;;;;;5012927;28;20029;-63
2024/02/13 04:47:30;;;;;;;26.23;12.68;;;2.20;99.90;;;;;;5014774;28;20092;-63
2024/02/13 04:50:01;;;;;;;27.15;11.48;;;2.30;99.90;;;;;;5008654;28;20086;-63
2024/02/13 04:52:27;;;;;;;26.67;11.85;;;2.40;99.90;;;;;;5010975;28;20045;-63
2024/02/13 04:54:57;;;;;;;22.73;10.75;;;2.50;99.90;;;;;;5015912;28;20041;-63
2024/02/13 04:57:23;;;;;;;17.02;9.15;;;2.50;99.90;;;;;;5009188;28;20042;-63
2024/02/13 04:59:49;;;;;;;20.65;9.55;;;2.50;99.90;;;;;;5016024;28;20088;-59
2024/02/13 05:02:21;;;;;;;18.25;9.05;;;2.40;99.90;;;;;;5012150;28;20038;-62
2024/02/13 05:07:32;;;;;;;25.85;9.75;;;2.20;99.90;;;;;;5012034;28;20549;-62
2024/02/13 05:10:02;;;;;;;22.35;9.00;;;2.20;99.90;;;;;;5012011;28;20029;-62
2024/02/13 05:12:28;;;;;;;21.70;9.07;;;2.10;99.90;;;;;;5014438;28;20103;-62
2024/02/13 05:14:54;;;;;;;22.33;10.68;;;2.00;99.90;;;;;;5014385;28;20120;-62
2024/02/13 05:17:26;;;;;;;27.90;9.18;;;1.90;99.90;;;;;;5012474;28;20040;-62
2024/02/13 05:19:53;;;;;;;17.90;9.20;;;1.90;99.90;;;;;;5011792;28;20480;-61
2024/02/13 05:22:19;;;;;;;17.80;8.63;;;1.80;99.90;;;;;;5012166;28;20450;-62
2024/02/13 05:24:46;;;;;;;16.52;8.07;;;1.80;99.90;;;;;;5011582;28;20145;-62
2024/02/13 05:27:13;;;;;;;21.00;8.35;;;1.70;99.90;;;;;;5013935;28;20065;-62
2024/02/13 05:29:39;;;;;;;22.67;7.93;;;1.70;99.90;;;;;;5014314;28;20112;-62
2024/02/13 05:32:08;;;;;;;15.65;8.23;;;1.70;99.90;;;;;;5005056;28;20610;-62
2024/02/13 05:34:35;;;;;;;19.80;8.43;;;1.70;99.90;;;;;;4994914;28;20064;-62
2024/02/13 05:37:05;;;;;;;28.70;8.75;;;1.70;99.90;;;;;;5014042;28;20120;-62
2024/02/13 05:39:31;;;;;;;17.35;8.65;;;1.70;99.90;;;;;;5017165;28;20495;-62
2024/02/13 05:41:57;;;;;;;22.20;9.45;;;1.60;99.90;;;;;;5006815;28;20057;-62
2024/02/13 05:44:24;;;;;;;18.15;8.48;;;1.60;99.90;;;;;;5001882;28;20700;-62
2024/02/13 05:46:55;;;;;;;20.92;8.95;;;1.60;99.90;;;;;;5003769;28;20119;-62
2024/02/13 05:49:21;;;;;;;19.33;9.35;;;1.50;99.90;;;;;;5003420;28;20036;-62
2024/02/13 05:51:46;;;;;;;22.45;8.20;;;1.50;99.90;;;;;;5005290;28;20026;-62
2024/02/13 05:54:13;;;;;;;24.80;8.85;;;1.40;99.90;;;;;;5004162;28;20787;-62
2024/02/13 05:56:39;;;;;;;16.17;8.80;;;1.40;99.90;;;;;;5002649;28;20040;-62
2024/02/13 05:59:05;;;;;;;18.48;9.00;;;1.40;99.90;;;;;;5003051;28;20037;-62
2024/02/13 06:01:32;;;;;;;17.67;8.77;;;1.30;99.90;;;;;;5004336;28;20140;-62
2024/02/13 06:04:01;;;;;;;20.38;8.07;;;1.30;99.90;;;;;;5003557;28;20017;-62
2024/02/13 06:06:27;;;;;;;17.33;8.75;;;1.30;99.90;;;;;;5003874;28;20037;-62
2024/02/13 06:08:54;;;;;;;18.42;7.82;;;1.30;99.90;;;;;;5007371;28;20067;-62
2024/02/13 06:11:20;;;;;;;20.83;7.95;;;1.30;99.90;;;;;;5006419;28;20539;-61
2024/02/13 06:13:48;;;;;;;22.70;7.88;;;1.30;99.90;;;;;;5009778;28;20060;-62
2024/02/13 06:16:16;;;;;;;21.08;7.53;;;1.30;99.90;;;;;;5012345;28;20038;-62
2024/02/13 06:18:42;;;;;;;20.38;7.28;;;1.30;99.90;;;;;;5006824;28;20037;-62
2024/02/13 06:21:08;;;;;;;20.92;8.43;;;1.30;99.90;;;;;;5007382;28;20038;-62
2024/02/13 06:23:33;;;;;;;19.77;8.35;;;1.20;99.90;;;;;;5007240;28;20448;-62
2024/02/13 06:25:59;;;;;;;17.88;7.90;;;1.30;99.90;;;;;;5006490;28;20524;-62
2024/02/13 06:28:24;;;;;;;21.45;8.77;;;1.30;99.90;;;;;;5010639;28;20030;-62
2024/02/13 06:30:51;;;;;;;29.52;9.55;;;1.30;99.90;;;;;;5009967;28;20108;-62
2024/02/13 06:33:17;;;;;;;19.65;8.35;;;1.40;99.90;;;;;;5010472;28;20042;-61
2024/02/13 06:35:43;;;;;;;15.55;7.53;;;1.50;99.90;;;;;;4995858;28;20049;-62
2024/02/13 06:38:08;;;;;;;18.92;8.85;;;1.60;99.90;;;;;;5010993;28;20083;-62
2024/02/13 06:40:34;;;;;;;15.75;7.22;;;1.70;99.90;;;;;;5004244;28;20476;-62
2024/02/13 06:43:01;;;;;;;31.42;8.88;;;1.80;99.90;;;;;;5016227;28;20092;-62
2024/02/13 06:45:27;;;;;;;20.58;8.88;;;1.90;99.90;;;;;;5017057;28;20488;-62
2024/02/13 06:47:53;;;;;;;20.58;9.23;;;1.90;99.90;;;;;;5014360;28;20061;-62
2024/02/13 06:50:19;;;;;;;18.02;8.48;;;2.00;99.90;;;;;;5020167;28;20045;-62
2024/02/13 06:52:50;;;;;;;19.15;8.05;;;2.10;99.90;;;;;;5018934;28;20423;-62
2024/02/13 06:55:16;;;;;;;16.45;7.57;;;2.20;99.90;;;;;;5011783;28;20026;-62
2024/02/13 06:57:41;;;;;;;21.77;7.93;;;2.30;99.90;;;;;;5013297;28;20025;-62
2024/02/13 07:00:09;;;;;;;22.65;8.27;;;2.30;99.90;;;;;;5014078;28;20057;-62
2024/02/13 07:02:37;;;;;;;17.83;8.25;;;2.40;99.90;;;;;;5017946;28;20029;-62
2024/02/13 07:05:04;;;;;;;16.92;7.47;;;2.40;99.90;;;;;;5021933;28;20037;-62
2024/02/13 07:07:30;;;;;;;13.07;6.20;;;2.50;99.90;;;;;;5017579;28;20052;-62
2024/02/13 07:09:55;;;;;;;14.02;6.53;;;2.60;99.90;;;;;;5012735;28;20491;-62
2024/02/13 07:12:21;;;;;;;12.02;6.20;;;2.60;99.90;;;;;;5016001;28;20045;-62
2024/02/13 07:14:47;;;;;;;13.10;5.97;;;2.60;99.90;;;;;;5016855;28;20042;-62
2024/02/13 07:17:13;;;;;;;21.55;6.72;;;2.70;99.90;;;;;;5013576;28;20068;-62
2024/02/13 07:19:42;;;;;;;11.15;5.75;;;2.70;99.90;;;;;;5012767;28;20036;-62
2024/02/13 07:22:08;;;;;;;10.57;4.93;;;2.80;99.90;;;;;;5015603;28;20026;-64
2024/02/13 07:24:37;;;;;;;9.82;5.22;;;2.70;99.90;;;;;;5014973;28;20487;-62
2024/02/13 07:27:06;;;;;;;9.45;5.30;;;2.70;99.90;;;;;;5016996;28;20030;-62
2024/02/13 07:29:32;;;;;;;9.68;4.70;;;2.80;99.90;;;;;;5012724;28;20034;-62
2024/02/13 07:31:58;;;;;;;8.75;3.92;;;2.90;99.90;;;;;;5016164;28;20395;-62
2024/02/13 07:34:23;;;;;;;7.95;3.97;;;3.00;99.90;;;;;;5017890;28;20044;-62
2024/02/13 07:36:49;;;;;;;7.30;4.22;;;3.10;99.90;;;;;;5002289;28;20946;-63
2024/02/13 07:39:15;;;;;;;8.45;4.05;;;3.20;99.90;;;;;;5015766;28;20060;-61
2024/02/13 07:41:43;;;;;;;6.47;4.15;;;3.30;99.90;;;;;;5012667;28;20108;-63
2024/02/13 07:44:09;;;;;;;11.25;3.95;;;3.40;99.90;;;;;;5019303;28;20037;-63
2024/02/13 07:46:36;;;;;;;4.95;3.17;;;3.50;99.90;;;;;;5018465;28;20084;-62
2024/02/13 07:49:02;;;;;;;4.63;2.80;;;3.50;99.90;;;;;;5011317;28;20178;-62
2024/02/13 07:51:28;;;;;;;8.52;3.28;;;3.60;99.90;;;;;;5008363;28;20044;-62
2024/02/13 07:53:54;;;;;;;4.57;2.78;;;3.70;99.90;;;;;;5012976;28;20407;-62
2024/02/13 07:56:25;;;;;;;6.53;2.95;;;3.80;99.90;;;;;;5012005;28;20042;-62
2024/02/13 07:58:50;;;;;;;8.40;2.53;;;3.80;99.90;;;;;;5014740;28;20017;-62
2024/02/13 08:01:21;;;;;;;7.50;2.85;;;3.80;99.90;;;;;;5014512;28;20494;-62
2024/02/13 08:03:46;;;;;;;3.92;2.55;;;3.70;99.90;;;;;;5014112;28;20482;-63
2024/02/13 08:06:12;;;;;;;7.18;2.85;;;3.60;99.90;;;;;;5014042;28;20030;-62
2024/02/13 08:08:38;;;;;;;6.50;2.55;;;3.70;99.90;;;;;;5008980;28;20498;-61
2024/02/13 08:11:04;;;;;;;6.10;2.30;;;3.60;99.90;;;;;;5015711;28;20033;-62
2024/02/13 08:13:30;;;;;;;4.43;2.25;;;3.60;99.90;;;;;;5013827;28;20407;-62
2024/02/13 08:15:55;;;;;;;5.93;2.22;;;3.60;99.90;;;;;;5017827;28;20038;-61
2024/02/13 08:18:21;;;;;;;6.50;2.85;;;3.70;99.90;;;;;;5011237;28;20491;-62
2024/02/13 08:20:47;;;;;;;7.22;3.22;;;3.80;99.90;;;;;;5013083;28;20026;-62
2024/02/13 08:23:12;;;;;;;3.90;2.58;;;4.10;99.90;;;;;;5007078;28;20018;-63
2024/02/13 08:25:38;;;;;;;3.25;1.95;;;4.30;99.90;;;;;;5012005;28;20018;-63
2024/02/13 08:28:04;;;;;;;8.38;2.67;;;4.50;99.90;;;;;;5012701;28;20033;-62
2024/02/13 08:30:30;;;;;;;7.43;2.83;;;4.70;99.90;;;;;;5010449;28;20066;-63
2024/02/13 08:32:56;;;;;;;5.32;2.50;;;4.90;99.90;;;;;;5014690;28;20113;-63
2024/02/13 08:35:22;;;;;;;5.70;2.10;;;5.10;99.90;;;;;;5001330;28;20057;-62
2024/02/13 08:37:50;;;;;;;3.20;1.70;;;5.00;99.90;;;;;;5016405;28;20030;-63
2024/02/13 08:40:18;;;;;;;3.53;1.65;;;5.20;99.90;;;;;;5008215;28;20403;-62
2024/02/13 08:42:44;;;;;;;3.30;1.85;;;5.20;99.90;;;;;;5013239;28;20069;-61
2024/02/13 08:45:11;;;;;;;5.07;2.17;;;5.20;99.90;;;;;;5014968;28;20054;-63
2024/02/13 08:47:37;;;;;;;5.68;2.67;;;5.40;99.90;;;;;;5017374;28;20030;-63
2024/02/13 08:50:03;;;;;;;2.97;1.75;;;5.40;99.90;;;;;;5015774;28;20033;-62
2024/02/13 08:52:29;;;;;;;4.35;2.15;;;5.30;99.90;;;;;;5010650;28;20086;-63
2024/02/13 08:54:54;;;;;;;3.25;1.70;;;5.30;99.90;;;;;;5012067;28;20430;-62
2024/02/13 08:57:20;;;;;;;3.20;1.73;;;5.50;99.90;;;;;;5014792;28;20479;-63
2024/02/13 08:59:46;;;;;;;4.93;1.70;;;5.50;99.90;;;;;;5014637;28;20272;-63
2024/02/13 09:02:12;;;;;;;9.90;1.65;;;5.50;99.90;;;;;;5011270;28;20068;-63
2024/02/13 09:04:38;;;;;;;5.35;1.77;;;5.50;99.90;;;;;;5014508;28;20030;-62
2024/02/13 09:07:04;;;;;;;6.13;1.85;;;5.60;99.90;;;;;;5013871;28;20030;-62
2024/02/13 09:09:32;;;;;;;4.40;1.80;;;5.70;99.90;;;;;;5013101;28;20022;-62
2024/02/13 09:11:59;;;;;;;3.97;1.50;;;5.80;99.90;;;;;;5012468;28;20543;-63
2024/02/13 09:14:24;;;;;;;3.88;1.63;;;5.70;99.90;;;;;;5011028;28;20083;-63
2024/02/13 09:16:50;;;;;;;2.95;1.67;;;5.70;99.90;;;;;;5015320;28;20404;-62
2024/02/13 09:19:16;;;;;;;11.25;1.98;;;5.70;99.90;;;;;;5017466;28;20045;-62
2024/02/13 09:21:43;;;;;;;4.15;1.63;;;5.70;99.90;;;;;;5009697;28;20026;-63
2024/02/13 09:24:09;;;;;;;3.60;1.48;;;5.80;99.90;;;;;;5015568;28;20527;-63
2024/02/13 09:26:35;;;;;;;2.78;0.90;;;5.70;99.90;;;;;;5011393;28;20033;-62
2024/02/13 09:29:01;;;;;;;3.85;1.42;;;5.70;99.90;;;;;;5012897;28;20030;-62
2024/02/13 09:31:27;;;;;;;3.53;1.73;;;5.80;99.90;;;;;;5015781;28;20061;-62
2024/02/13 09:33:54;;;;;;;4.18;1.95;;;5.80;99.90;;;;;;5009122;28;20504;-63
2024/02/13 09:36:21;;;;;;;3.00;1.35;;;5.90;99.90;;;;;;4998207;28;20296;-62
2024/02/13 09:38:47;;;;;;;8.50;1.35;;;6.00;99.90;;;;;;5015889;28;20049;-62
2024/02/13 09:41:14;;;;;;;1.55;1.25;;;6.00;99.90;;;;;;5012622;28;20034;-62
2024/02/13 09:43:40;;;;;;;4.45;1.60;;;6.00;99.90;;;;;;5016474;28;20113;-63
2024/02/13 09:46:06;;;;;;;6.43;1.40;;;6.30;99.90;;;;;;5011901;28;20116;-63
2024/02/13 09:48:37;;;;;;;3.65;1.60;;;6.70;99.90;;;;;;5012190;28;20037;-62
2024/02/13 09:51:08;;;;;;;4.35;1.35;;;7.00;99.90;;;;;;5013729;28;20104;-63
2024/02/13 09:53:42;;;;;;;1.80;1.08;;;7.10;99.90;;;;;;5010951;28;20035;-63
2024/02/13 09:56:13;;;;;;;5.95;2.15;;;7.30;99.90;;;;;;5011270;28;20038;-63
2024/02/13 09:58:41;;;;;;;4.72;2.03;;;7.70;99.90;;;;;;5010115;28;20058;-62
2024/02/13 10:01:07;;;;;;;3.50;1.70;;;7.80;99.90;;;;;;5014108;28;20029;-63
2024/02/13 10:03:36;;;;;;;2.55;1.20;;;8.00;99.90;;;;;;5016047;28;20116;-63
2024/02/13 10:06:04;;;;;;;4.60;2.40;;;8.20;99.90;;;;;;5018764;28;20029;-63
2024/02/13 10:08:30;;;;;;;2.35;1.00;;;8.50;99.90;;;;;;5010053;28;20037;-63
2024/02/13 10:11:04;;;;;;;4.78;2.38;;;8.50;99.90;;;;;;5010127;28;20128;-63
2024/02/13 10:13:42;;;;;;;3.45;1.35;;;8.40;99.90;;;;;;5014561;28;20029;-63
2024/02/13 10:16:28;;;;;;;7.32;1.58;;;8.80;99.90;;;;;;5011875;28;20060;-63
2024/02/13 10:19:01;;;;;;;3.00;1.02;;;8.80;99.90;;;;;;5008916;28;20523;-63
2024/02/13 10:21:27;;;;;;;4.43;1.42;;;8.70;99.90;;;;;;5015702;28;20044;-62
2024/02/13 10:24:04;;;;;;;3.65;1.30;;;8.50;99.90;;;;;;5013030;28;20029;-63
2024/02/13 10:26:29;;;;;;;2.15;0.80;;;8.40;99.90;;;;;;5008010;28;20583;-63
2024/02/13 10:28:57;;;;;;;1.65;0.95;;;8.20;99.90;;;;;;5011962;28;20112;-63
2024/02/13 10:31:24;;;;;;;1.52;1.00;;;7.90;99.90;;;;;;5012280;28;20052;-62
2024/02/13 10:33:50;;;;;;;21.02;1.67;;;7.80;99.90;;;;;;5014863;28;20108;-63
2024/02/13 10:36:16;;;;;;;4.65;1.00;;;7.70;99.90;;;;;;4992196;28;20077;-62
2024/02/13 10:38:47;;;;;;;4.95;1.30;;;7.70;99.90;;;;;;5013220;28;20093;-63
2024/02/13 10:41:21;;;;;;;2.40;0.95;;;7.80;99.90;;;;;;5011534;28;20486;-63
2024/02/13 10:43:50;;;;;;;3.33;1.10;;;7.80;99.90;;;;;;5006422;28;20730;-62
2024/02/13 10:46:19;;;;;;;3.78;1.00;;;7.80;99.90;;;;;;5009482;28;20096;-61
2024/02/13 10:48:51;;;;;;;3.55;1.67;;;7.90;99.90;;;;;;5010823;28;20025;-63
2024/02/13 10:51:18;;;;;;;188.18;41.80;;;8.00;99.90;;;;;;5010633;28;20242;-62
2024/02/13 10:53:47;;;;;;;40.05;11.25;;;7.90;99.90;;;;;;5014116;28;20109;-62
2024/02/13 10:56:14;;;;;;;13.38;4.43;;;8.10;99.90;;;;;;5011405;28;20033;-61
2024/02/13 10:58:43;;;;;;;9.23;1.70;;;8.20;99.90;;;;;;5010609;28;20034;-62
2024/02/13 11:01:11;;;;;;;3.03;1.63;;;8.40;99.90;;;;;;5009312;28;20030;-62
2024/02/13 11:03:38;;;;;;;7.30;1.67;;;8.40;99.90;;;;;;5010879;28;20030;-63
2024/02/13 11:06:05;;;;;;;7.88;1.63;;;8.40;99.90;;;;;;5008128;28;20084;-63
2024/02/13 11:08:31;;;;;;;4.38;1.08;;;8.40;99.90;;;;;;5010877;28;20036;-63
2024/02/13 11:10:59;;;;;;;6.50;2.10;;;8.30;99.90;;;;;;5009494;28;20034;-63
2024/02/13 11:13:26;;;;;;;6.65;3.38;;;8.40;99.90;;;;;;5015166;28;20526;-63
2024/02/13 11:15:56;;;;;;;11.95;3.90;;;8.40;99.90;;;;;;5014401;28;20591;-63
2024/02/13 11:18:22;;;;;;;99.28;31.73;;;8.50;99.90;;;;;;5010876;28;20042;-63
2024/02/13 11:20:50;;;;;;;26.20;9.75;;;8.60;99.90;;;;;;5010835;28;20030;-63
2024/02/13 11:23:16;;;;;;;18.83;7.22;;;8.60;99.90;;;;;;5010153;28;20066;-62
2024/02/13 11:25:59;;;;;;;13.60;6.28;;;8.60;99.90;;;;;;5009025;28;20026;-63
2024/02/13 11:28:38;;;;;;;86.43;28.52;;;8.80;99.90;;;;;;5017450;28;20033;-63
2024/02/13 11:31:16;;;;;;;11.48;3.58;;;8.80;99.90;;;;;;5014923;28;20049;-63
2024/02/13 11:34:08;;;;;;;25.77;10.57;;;8.70;99.90;;;;;;5019304;28;20486;-63
2024/02/13 11:36:34;;;;;;;57.63;20.05;;;8.80;99.90;;;;;;5002180;28;20106;-63
2024/02/13 11:39:04;;;;;;;10.38;4.05;;;8.90;99.90;;;;;;5012453;28;20037;-63
2024/02/13 11:41:31;;;;;;;14.98;6.15;;;8.80;99.90;;;;;;5014661;28;20026;-63
2024/02/13 11:44:07;;;;;;;8.60;3.60;;;8.90;99.90;;;;;;5015319;28;20041;-63
2024/02/13 11:46:36;;;;;;;4.78;1.40;;;9.10;99.90;;;;;;5016359;28;20120;-63
2024/02/13 11:49:07;;;;;;;14.55;5.28;;;9.10;99.90;;;;;;5019273;28;20048;-65
2024/02/13 11:51:34;;;;;;;36.45;11.95;;;9.00;99.90;;;;;;5013133;28;20038;-62
2024/02/13 11:53:59;;;;;;;76.88;23.60;;;9.00;99.90;;;;;;5018621;28;20034;-63
2024/02/13 11:56:25;;;;;;;73.63;21.25;;;9.10;99.90;;;;;;5018397;28;20372;-63
2024/02/13 11:58:56;;;;;;;19.05;6.18;;;9.00;99.90;;;;;;5016575;28;20033;-62
2024/02/13 12:01:23;;;;;;;34.78;9.90;;;9.10;99.90;;;;;;5013093;28;20770;-63
2024/02/13 12:03:49;;;;;;;41.58;11.43;;;9.20;99.90;;;;;;5016894;28;20033;-63
2024/02/13 12:06:15;;;;;;;127.68;38.95;;;9.20;99.90;;;;;;5016744;28;20353;-62
2024/02/13 12:08:44;;;;;;;25.85;11.05;;;9.10;99.90;;;;;;5013949;28;20037;-63
2024/02/13 12:11:10;;;;;;;35.28;11.65;;;9.00;99.90;;;;;;5015190;28;20026;-63
2024/02/13 12:13:36;;;;;;;36.92;10.32;;;9.10;99.90;;;;;;5012646;28;20041;-63
2024/02/13 12:16:04;;;;;;;40.30;11.75;;;9.00;99.90;;;;;;5015086;28;20618;-63
2024/02/13 12:18:30;;;;;;;49.67;13.55;;;9.00;99.90;;;;;;5010706;28;20030;-63
2024/02/13 12:20:57;;;;;;;63.72;21.25;;;9.20;99.90;;;;;;5003228;28;20029;-63
2024/02/13 12:23:25;;;;;;;58.90;16.70;;;9.30;99.90;;;;;;5011637;28;20184;-62
2024/02/13 12:26:01;;;;;;;24.10;8.85;;;9.30;99.90;;;;;;5018214;28;20033;-63
2024/02/13 12:28:28;;;;;;;20.05;7.28;;;9.40;99.90;;;;;;5017119;28;20041;-63
2024/02/13 12:30:55;;;;;;;29.35;10.73;;;9.50;99.90;;;;;;5015963;28;20483;-63
2024/02/13 12:33:23;;;;;;;7.20;1.33;;;9.80;99.90;;;;;;5014653;28;20480;-62
2024/02/13 12:36:18;;;;;;;24.67;6.85;;;9.90;99.90;;;;;;5014555;28;20036;-63
2024/02/13 12:38:45;;;;;;;6.10;2.17;;;10.10;99.90;;;;;;4998200;28;20053;-63
2024/02/13 12:41:11;;;;;;;22.80;8.40;;;10.30;99.90;;;;;;5013396;28;20056;-63
2024/02/13 12:43:37;;;;;;;5.68;2.10;;;10.30;99.90;;;;;;5014627;28;20057;-63
2024/02/13 12:46:05;;;;;;;8.93;4.28;;;10.50;99.90;;;;;;5015059;28;20104;-62
2024/02/13 12:48:36;;;;;;;13.55;6.60;;;10.50;99.90;;;;;;5013046;28;20030;-62
2024/02/13 12:51:04;;;;;;;3.92;1.35;;;10.40;99.90;;;;;;5012760;28;20176;-63